Aviation Digital Data Service (ADDS)

Output produced by METARs form (1805 UTC 19 October 2017)
found at http://www.aviationweather.gov/adds/metars/
 
EYKA 191750Z 06001KT CAVOK 04/02 Q1020
TAF EYKA 191717Z 1918/2018 VRB04KT 7000 NSC 
     TEMPO 1918/1920 3000 MIFG BR SCT005 
     BECMG 1920/1921 1500 MIFG BR SCT005 
     TEMPO 1921/2006 0500 FG VV002 
     BECMG 2006/2008 3000 BR BKN006 
     BECMG 2008/2009 9000 BKN010
       
EYPA 191750Z 07002KT CAVOK 03/03 Q1021
TAF EYPA 191700Z 1918/2018 VRB04KT 5000 BR SCT010 
     TEMPO 1919/2004 0600 FG VV002 
     BECMG 2008/2010 12014KT 8000 BKN020 
     TEMPO 2012/2018 3000 SHRA BKN005 BKN015CB
       
EYSA 191750Z 00000KT CAVOK 03/03 Q1021 BLU NOSIG
TAF EYSA 191701Z 1918/2003 VRB04KT 3000 BR MIFG SCT005 
     TEMPO 1918/1923 0500 FG VV002
       
EYVI 191750Z VRB01KT CAVOK 06/03 Q1020 NOSIG
TAF EYVI 191728Z 1918/2018 VRB04KT 3000 MIFG BR SCT005 
     TEMPO 1918/1924 0500 FG VV002 
     BECMG 2000/2001 0400 FG VV002 
     TEMPO 2004/2007 1500 BR BKN003 
     BECMG 2007/2009 5000 BR BKN006 
     BECMG 2009/2010 9000 BKN020